Time;durP1;ratioP1;P1;durP2;ratioP2;P2;SDS_P1;SDS_P2;PMS_P1;PMS_P2;Temp;Humidity;BMP_temperature;BMP_pressure;BME280_temperature;BME280_humidity;BME280_pressure;Samples;Min_cycle;Max_cycle;Signal;HPM_P1;HPM_P2
2023/06/19 00:01:26;;;;;;;10.23;7.95;;;;;;;21.30;48.28;97816.75;5012991;28;20396;-75
2023/06/19 00:03:51;;;;;;;12.95;8.48;;;;;;;21.31;48.03;97812.88;5037748;28;20038;-76
2023/06/19 00:06:17;;;;;;;10.05;8.05;;;;;;;21.37;47.65;97810.78;5006291;28;20135;-75
2023/06/19 00:08:42;;;;;;;9.40;8.10;;;;;;;21.38;46.78;97802.22;5002543;28;20042;-77
2023/06/19 00:11:08;;;;;;;8.88;7.97;;;;;;;21.36;47.16;97799.00;5011577;28;20035;-77
2023/06/19 00:13:36;;;;;;;8.70;7.80;;;;;;;21.35;47.14;97816.59;4984315;28;20037;-76
2023/06/19 00:16:01;;;;;;;9.48;7.75;;;;;;;21.28;47.15;97808.06;5012415;28;20029;-75
2023/06/19 00:18:27;;;;;;;8.68;7.78;;;;;;;21.27;46.85;97811.91;5004500;28;20037;-76
2023/06/19 00:20:55;;;;;;;11.02;8.02;;;;;;;21.46;47.05;97809.66;5039226;28;20051;-76
2023/06/19 00:23:22;;;;;;;8.75;7.88;;;;;;;21.33;45.77;97805.16;5001031;28;20072;-76
2023/06/19 00:25:47;;;;;;;9.05;8.15;;;;;;;21.48;45.92;97796.44;5000366;28;20030;-76
2023/06/19 00:28:14;;;;;;;8.95;7.70;;;;;;;21.50;45.22;97791.41;5005136;28;20566;-75
2023/06/19 00:30:40;;;;;;;8.57;7.68;;;;;;;21.41;45.35;97796.13;5005940;28;20025;-76
2023/06/19 00:33:07;;;;;;;10.68;7.80;;;;;;;21.34;45.70;97795.78;4984685;28;20034;-75
2023/06/19 00:35:33;;;;;;;9.23;7.32;;;;;;;21.34;46.29;97801.28;4977462;28;20023;-76
2023/06/19 00:38:00;;;;;;;10.98;8.15;;;;;;;21.05;47.03;97798.41;5023209;28;20041;-76
2023/06/19 00:40:31;;;;;;;10.45;8.32;;;;;;;21.27;47.44;97800.97;4998927;28;20117;-76
2023/06/19 00:42:57;;;;;;;9.63;7.45;;;;;;;21.21;46.16;97799.53;5028392;28;20084;-76
2023/06/19 00:45:23;;;;;;;9.85;8.25;;;;;;;20.92;47.35;97799.31;5040636;28;20500;-75
2023/06/19 00:47:49;;;;;;;9.35;8.35;;;;;;;21.13;48.51;97803.88;4986120;28;20115;-74
2023/06/19 00:50:15;;;;;;;9.52;8.02;;;;;;;20.93;49.22;97800.94;5014919;28;20025;-74
2023/06/19 00:52:41;;;;;;;8.55;7.75;;;;;;;20.98;48.56;97803.50;5018254;28;20038;-74
2023/06/19 00:55:09;;;;;;;10.90;7.88;;;;;;;21.01;48.75;97802.84;5040874;28;20032;-74
2023/06/19 00:57:35;;;;;;;8.65;7.78;;;;;;;20.82;49.23;97794.94;5003213;28;20049;-76
2023/06/19 01:00:04;;;;;;;8.30;7.55;;;;;;;21.06;47.03;97799.97;4989140;28;20022;-77
2023/06/19 01:02:30;;;;;;;8.27;7.38;;;;;;;21.14;47.71;97796.47;4986832;28;20037;-76
2023/06/19 01:04:56;;;;;;;9.20;8.20;;;;;;;21.19;47.10;97793.56;4997856;28;20029;-77
2023/06/19 01:07:32;;;;;;;9.00;7.38;;;;;;;20.90;46.67;97791.41;5018027;28;20042;-78
2023/06/19 01:10:05;;;;;;;9.25;8.35;;;;;;;21.15;47.33;97789.84;5038460;28;20038;-77
2023/06/19 01:12:34;;;;;;;9.20;7.80;;;;;;;21.06;49.26;97789.03;5021074;28;20041;-75
2023/06/19 01:15:05;;;;;;;8.70;7.65;;;;;;;21.24;46.41;97787.91;5011209;28;20026;-75
2023/06/19 01:17:31;;;;;;;8.35;7.55;;;;;;;21.31;46.29;97785.47;4995636;28;20041;-75
2023/06/19 01:19:57;;;;;;;7.82;7.03;;;;;;;21.32;45.79;97781.63;5001974;28;20432;-75
2023/06/19 01:22:26;;;;;;;8.75;7.85;;;;;;;21.36;45.93;97777.09;4983884;28;20041;-75
2023/06/19 01:24:51;;;;;;;8.43;7.53;;;;;;;21.31;46.10;97766.28;5020271;28;20112;-75
2023/06/19 01:27:16;;;;;;;8.90;7.03;;;;;;;21.19;45.56;97766.16;5037931;28;20128;-74
2023/06/19 01:29:43;;;;;;;8.63;7.50;;;;;;;21.22;46.73;97781.94;4999008;28;20045;-75
2023/06/19 01:32:13;;;;;;;10.30;7.45;;;;;;;21.24;46.78;97785.16;4981992;28;20452;-74
2023/06/19 01:34:39;;;;;;;9.05;8.05;;;;;;;20.87;47.38;97785.75;5027313;28;20073;-75
2023/06/19 01:37:05;;;;;;;9.18;7.90;;;;;;;20.85;48.23;97793.50;5012813;28;20105;-77
2023/06/19 01:39:31;;;;;;;9.13;8.23;;;;;;;20.81;49.27;97798.81;4998318;28;20034;-75
2023/06/19 01:41:57;;;;;;;10.30;8.18;;;;;;;20.73;49.48;97793.31;5021164;28;20030;-75
2023/06/19 01:44:23;;;;;;;9.32;8.43;;;;;;;20.82;49.45;97789.47;5017774;28;20048;-75
2023/06/19 01:46:50;;;;;;;8.68;7.72;;;;;;;20.86;50.06;97797.84;5014036;28;20026;-75
2023/06/19 01:49:15;;;;;;;8.50;7.70;;;;;;;20.75;50.54;97804.78;4988363;28;20125;-75
2023/06/19 01:51:41;;;;;;;9.80;8.32;;;;;;;20.77;50.36;97799.78;5002493;28;20201;-74
2023/06/19 01:54:06;;;;;;;9.82;8.73;;;;;;;20.83;50.38;97801.22;4992311;28;20074;-75
2023/06/19 01:56:32;;;;;;;8.43;7.63;;;;;;;20.83;49.15;97795.75;4987952;28;20014;-74
2023/06/19 01:58:57;;;;;;;9.38;8.02;;;;;;;20.83;49.70;97802.03;4985851;28;20095;-74
2023/06/19 02:01:23;;;;;;;8.85;7.93;;;;;;;20.76;49.20;97800.91;5014235;28;20530;-74
2023/06/19 02:03:48;;;;;;;9.35;8.45;;;;;;;20.80;48.54;97793.66;5032322;28;20140;-75
2023/06/19 02:06:13;;;;;;;11.30;8.95;;;;;;;20.94;45.33;97791.56;5037159;28;20049;-74
2023/06/19 02:08:40;;;;;;;10.20;8.25;;;;;;;21.12;44.71;97793.25;5036324;28;20045;-75
2023/06/19 02:11:10;;;;;;;9.60;8.70;;;;;;;21.07;44.59;97785.19;4999960;28;20589;-75
2023/06/19 02:13:35;;;;;;;9.07;8.18;;;;;;;21.06;44.48;97772.59;5000471;28;20038;-75
2023/06/19 02:16:00;;;;;;;14.98;8.77;;;;;;;20.68;45.52;97789.63;5010156;28;20036;-74
2023/06/19 02:18:27;;;;;;;9.80;8.23;;;;;;;20.69;46.42;97790.41;5011379;28;20057;-73
2023/06/19 02:20:52;;;;;;;9.10;8.15;;;;;;;20.72;46.79;97780.78;5014828;28;20022;-74
2023/06/19 02:23:18;;;;;;;9.57;8.55;;;;;;;20.59;46.58;97780.59;5011569;28;20103;-74
2023/06/19 02:25:43;;;;;;;9.68;8.48;;;;;;;20.40;48.66;97791.00;5040210;28;20081;-74
2023/06/19 02:28:08;;;;;;;9.52;8.25;;;;;;;20.36;48.75;97787.28;5002272;28;20407;-74
2023/06/19 02:30:34;;;;;;;9.95;8.73;;;;;;;19.78;50.27;97790.25;4981146;28;20029;-76
2023/06/19 02:32:59;;;;;;;9.05;8.15;;;;;;;20.03;48.89;97783.28;5015488;28;20042;-77
2023/06/19 02:35:25;;;;;;;10.13;8.77;;;;;;;20.04;49.57;97790.38;5002925;28;20031;-75
2023/06/19 02:37:50;;;;;;;9.30;8.40;;;;;;;19.86;50.36;97785.94;5014219;28;20050;-75
2023/06/19 02:40:15;;;;;;;10.52;8.80;;;;;;;19.72;50.61;97790.69;4988586;28;20114;-75
2023/06/19 02:42:41;;;;;;;10.65;8.32;;;;;;;19.92;50.32;97787.41;5000832;28;20034;-75
2023/06/19 02:45:07;;;;;;;10.50;8.45;;;;;;;19.94;49.93;97779.69;5027108;28;20033;-75
2023/06/19 02:48:09;;;;;;;9.57;8.68;;;;;;;19.62;51.39;97785.47;5010758;23;20050;-75
2023/06/19 02:50:46;;;;;;;10.48;8.93;;;;;;;19.54;50.90;97758.91;5003885;28;20487;-74
2023/06/19 02:53:18;;;;;;;10.32;8.68;;;;;;;19.50;50.86;97760.66;4998435;28;20044;-74
2023/06/19 02:55:52;;;;;;;9.20;8.30;;;;;;;19.47;50.81;97764.81;5016884;28;20026;-75
2023/06/19 02:58:17;;;;;;;10.02;8.75;;;;;;;19.08;50.47;97751.84;4984764;28;20035;-74
2023/06/19 03:01:23;;;;;;;11.35;9.07;;;;;;;19.37;50.84;97753.34;4966831;28;20037;-74
2023/06/19 03:03:57;;;;;;;12.15;9.48;;;;;;;18.90;52.23;97746.56;4962792;28;20047;-75
2023/06/19 03:06:23;;;;;;;9.30;8.05;;;;;;;19.05;51.46;97757.91;5000781;23;20061;-75
2023/06/19 03:08:51;;;;;;;10.65;8.40;;;;;;;18.92;52.46;97753.31;5003936;28;20476;-75
2023/06/19 03:11:20;;;;;;;10.88;8.63;;;;;;;18.84;51.40;97777.78;4968963;28;20105;-76
2023/06/19 03:13:53;;;;;;;9.95;8.52;;;;;;;18.87;52.24;97782.63;4985617;28;20022;-76
2023/06/19 03:16:19;;;;;;;11.68;8.93;;;;;;;19.09;50.86;97780.72;4995409;28;20076;-76
2023/06/19 03:18:45;;;;;;;12.73;8.70;;;;;;;19.19;51.58;97785.97;4974285;28;20030;-76
2023/06/19 03:21:14;;;;;;;9.30;8.40;;;;;;;19.39;49.58;97781.16;4968259;28;20041;-76
2023/06/19 03:23:42;;;;;;;12.60;8.98;;;;;;;19.28;49.96;97789.56;4968307;28;20026;-76
2023/06/19 03:26:08;;;;;;;9.93;8.15;;;;;;;19.28;48.69;97795.03;4990794;28;20085;-75
2023/06/19 03:28:35;;;;;;;8.95;8.05;;;;;;;18.80;52.16;97799.44;4986918;28;20026;-75
2023/06/19 03:31:01;;;;;;;11.45;9.23;;;;;;;18.93;51.04;97806.78;4968330;28;20049;-76
2023/06/19 03:33:27;;;;;;;10.95;8.68;;;;;;;18.89;51.25;97802.22;4968227;28;20026;-75
2023/06/19 03:35:53;;;;;;;9.73;8.73;;;;;;;18.81;51.97;97806.50;4951251;28;20027;-75
2023/06/19 03:38:35;;;;;;;10.52;9.02;;;;;;;19.10;49.91;97815.13;4990741;28;20113;-75
2023/06/19 03:41:01;;;;;;;10.32;8.48;;;;;;;18.93;51.58;97822.34;4968668;28;20030;-75
2023/06/19 03:43:27;;;;;;;10.15;8.60;;;;;;;18.95;51.65;97826.38;4976212;28;20395;-76
2023/06/19 03:45:52;;;;;;;9.15;8.10;;;;;;;19.07;51.48;97826.66;4972008;28;20517;-76
2023/06/19 03:48:18;;;;;;;9.25;7.70;;;;;;;19.20;50.17;97814.06;4990393;28;20076;-75
2023/06/19 03:50:43;;;;;;;10.20;7.90;;;;;;;19.40;49.97;97829.19;4970069;28;20399;-74
2023/06/19 03:53:09;;;;;;;10.00;7.97;;;;;;;19.02;51.74;97828.69;4983113;28;20030;-74
2023/06/19 03:55:34;;;;;;;8.82;7.93;;;;;;;19.40;49.04;97834.66;4972063;28;20027;-75
2023/06/19 03:58:00;;;;;;;9.77;8.43;;;;;;;19.51;47.92;97830.56;4974240;28;20041;-75
2023/06/19 04:00:25;;;;;;;9.02;8.02;;;;;;;19.71;47.47;97830.06;4969338;28;20125;-75
2023/06/19 04:02:51;;;;;;;9.52;8.52;;;;;;;19.93;45.84;97840.94;4963649;28;20019;-76
2023/06/19 04:05:19;;;;;;;11.20;7.72;;;;;;;19.85;46.55;97842.53;4972112;28;20035;-75
2023/06/19 04:07:45;;;;;;;8.52;7.47;;;;;;;20.11;44.83;97823.53;4974019;28;20026;-75
2023/06/19 04:10:13;;;;;;;10.20;7.53;;;;;;;20.59;42.94;97846.25;5003123;28;20084;-76
2023/06/19 04:12:40;;;;;;;13.55;7.70;;;;;;;20.72;42.87;97843.72;4959728;28;20034;-74
2023/06/19 04:15:06;;;;;;;10.50;7.88;;;;;;;20.80;43.19;97835.50;4983128;28;20193;-74
2023/06/19 04:17:32;;;;;;;8.98;8.07;;;;;;;20.80;42.95;97842.91;4982272;28;20049;-75
2023/06/19 04:19:57;;;;;;;11.13;8.00;;;;;;;20.94;43.61;97841.66;4974935;28;20484;-75
2023/06/19 04:22:23;;;;;;;11.88;8.13;;;;;;;20.93;43.39;97844.72;4991461;28;20057;-75
2023/06/19 04:24:48;;;;;;;8.57;7.65;;;;;;;21.05;43.37;97834.78;4986483;28;20042;-75
2023/06/19 04:27:14;;;;;;;10.23;8.27;;;;;;;21.25;42.46;97830.59;4986272;28;20101;-75
2023/06/19 04:29:39;;;;;;;8.40;7.55;;;;;;;21.39;42.68;97831.25;4974043;28;20038;-76
2023/06/19 04:32:11;;;;;;;9.52;7.93;;;;;;;21.45;42.42;97835.44;4978170;28;20030;-75
2023/06/19 04:34:40;;;;;;;10.85;7.45;;;;;;;21.22;43.15;97837.53;4971602;28;20069;-75
2023/06/19 04:37:06;;;;;;;9.77;8.23;;;;;;;21.32;42.96;97836.41;4962974;28;20022;-76
2023/06/19 04:39:31;;;;;;;8.95;8.05;;;;;;;21.34;43.24;97837.69;4972344;28;20555;-75
2023/06/19 04:41:56;;;;;;;9.15;7.82;;;;;;;21.52;43.19;97838.47;4989936;28;20056;-75
2023/06/19 04:44:22;;;;;;;8.90;7.78;;;;;;;21.59;43.24;97846.22;4966757;28;20045;-76
2023/06/19 04:46:47;;;;;;;9.20;8.15;;;;;;;21.69;43.31;97846.69;4995062;28;20109;-76
2023/06/19 04:49:12;;;;;;;11.00;8.93;;;;;;;21.73;43.51;97842.16;4973156;28;20042;-76
2023/06/19 04:51:38;;;;;;;8.68;7.78;;;;;;;21.85;42.96;97856.06;4949494;28;20022;-76
2023/06/19 04:54:03;;;;;;;11.75;8.45;;;;;;;21.83;43.26;97858.28;4971951;28;20096;-76
2023/06/19 04:56:29;;;;;;;10.30;8.05;;;;;;;21.77;43.17;97853.31;4977411;28;20037;-76
2023/06/19 04:58:59;;;;;;;9.45;8.23;;;;;;;21.87;42.17;97869.44;4973962;28;20111;-76
2023/06/19 05:01:27;;;;;;;10.57;8.30;;;;;;;22.01;42.51;97859.88;4986217;28;20065;-76
2023/06/19 05:03:54;;;;;;;9.32;8.30;;;;;;;22.12;42.46;97871.34;4970835;28;20026;-74
2023/06/19 05:06:20;;;;;;;11.20;8.25;;;;;;;22.29;41.97;97871.25;4994228;28;20436;-74
2023/06/19 05:08:45;;;;;;;8.98;8.07;;;;;;;22.24;42.13;97881.63;4967857;28;20029;-74
2023/06/19 05:11:10;;;;;;;9.90;8.50;;;;;;;22.36;42.38;97882.53;4982436;28;20034;-75
2023/06/19 05:13:36;;;;;;;12.32;9.05;;;;;;;22.54;41.43;97883.28;5001265;28;20061;-75
2023/06/19 05:16:01;;;;;;;10.68;8.30;;;;;;;22.64;41.63;97882.94;4980312;28;20032;-75
2023/06/19 05:18:27;;;;;;;10.38;9.13;;;;;;;22.49;41.88;97880.72;4995195;28;20072;-75
2023/06/19 05:20:52;;;;;;;10.75;8.15;;;;;;;22.33;42.48;97890.63;4982038;28;20500;-74
2023/06/19 05:23:18;;;;;;;9.20;8.30;;;;;;;22.36;42.87;97895.44;4994398;28;20022;-75
2023/06/19 05:25:45;;;;;;;11.13;9.02;;;;;;;22.37;42.96;97897.06;5008380;28;20563;-76
2023/06/19 05:28:10;;;;;;;10.85;8.40;;;;;;;22.37;42.75;97897.06;4975312;28;20065;-75
2023/06/19 05:30:36;;;;;;;10.50;9.38;;;;;;;22.30;43.24;97894.03;4972035;28;20077;-74
2023/06/19 05:33:01;;;;;;;10.32;8.55;;;;;;;22.53;43.30;97895.38;4984792;28;20032;-74
2023/06/19 05:35:27;;;;;;;12.35;8.93;;;;;;;22.48;44.00;97901.06;4981844;28;20053;-73
2023/06/19 05:37:52;;;;;;;10.40;9.32;;;;;;;22.40;44.54;97904.66;4985123;28;20026;-75
2023/06/19 05:40:17;;;;;;;11.52;8.85;;;;;;;22.23;45.07;97911.00;4988188;28;20105;-75
2023/06/19 05:42:43;;;;;;;11.38;9.10;;;;;;;22.20;44.86;97899.84;4992414;28;20455;-75
2023/06/19 05:45:08;;;;;;;12.30;9.38;;;;;;;22.38;45.27;97912.41;4991404;28;20049;-75
2023/06/19 05:47:34;;;;;;;10.38;9.23;;;;;;;22.59;44.75;97921.53;4992313;28;20022;-75
2023/06/19 05:49:59;;;;;;;10.85;9.55;;;;;;;22.66;44.69;97910.88;4975396;28;20042;-75
2023/06/19 05:52:25;;;;;;;11.98;9.90;;;;;;;22.73;44.52;97924.91;4959071;28;20101;-75
2023/06/19 05:54:50;;;;;;;10.88;9.77;;;;;;;22.82;44.76;97922.94;5005157;28;20030;-75
2023/06/19 05:57:18;;;;;;;11.88;9.15;;;;;;;22.95;44.44;97927.38;4992379;28;20018;-75
2023/06/19 05:59:44;;;;;;;10.75;9.25;;;;;;;22.84;44.49;97926.16;4977778;28;20045;-76
2023/06/19 06:02:09;;;;;;;11.00;9.88;;;;;;;22.92;43.87;97933.53;4984203;28;20026;-75
2023/06/19 06:04:36;;;;;;;11.50;9.45;;;;;;;23.01;44.50;97925.25;4964939;28;20444;-75
2023/06/19 06:07:01;;;;;;;10.18;9.13;;;;;;;22.99;44.31;97941.25;4967806;28;20030;-75
2023/06/19 06:09:27;;;;;;;12.38;9.60;;;;;;;22.94;46.14;97942.22;5005513;28;20045;-75
2023/06/19 06:11:52;;;;;;;11.32;9.50;;;;;;;23.02;45.94;97944.16;4968676;28;20080;-75
2023/06/19 06:14:17;;;;;;;11.88;9.70;;;;;;;22.81;45.64;97947.94;4980518;28;20037;-75
2023/06/19 06:16:43;;;;;;;11.27;9.77;;;;;;;22.72;46.73;97949.94;4984704;28;20373;-75
2023/06/19 06:19:08;;;;;;;11.85;9.77;;;;;;;22.90;46.26;97945.97;5007236;28;20104;-75
2023/06/19 06:21:34;;;;;;;11.90;9.48;;;;;;;23.16;45.90;97933.72;4989060;28;20040;-75
2023/06/19 06:24:00;;;;;;;11.32;10.07;;;;;;;23.20;45.64;97951.16;4974483;28;20050;-75
2023/06/19 06:26:27;;;;;;;11.35;9.70;;;;;;;23.29;45.98;97959.38;4984486;28;20033;-76
2023/06/19 06:28:53;;;;;;;11.60;10.23;;;;;;;23.23;46.04;97961.50;4998522;28;20038;-76
2023/06/19 06:31:18;;;;;;;14.95;10.65;;;;;;;23.33;46.44;97961.13;4968010;28;20052;-76
2023/06/19 06:33:44;;;;;;;11.35;10.18;;;;;;;23.37;46.54;97966.75;4974458;28;20038;-76
2023/06/19 06:36:09;;;;;;;10.88;9.77;;;;;;;23.73;45.33;97968.97;4983002;28;20380;-73
2023/06/19 06:38:34;;;;;;;10.80;9.70;;;;;;;24.11;45.53;97969.63;4987856;28;20042;-75
2023/06/19 06:41:00;;;;;;;10.70;9.60;;;;;;;23.97;46.47;97971.81;4982090;28;20076;-75
2023/06/19 06:43:25;;;;;;;12.75;10.10;;;;;;;23.65;46.36;97967.06;4992133;28;20046;-75
2023/06/19 06:45:51;;;;;;;11.02;9.93;;;;;;;23.21;46.76;97972.00;4988942;28;20038;-76
2023/06/19 06:48:16;;;;;;;10.52;9.43;;;;;;;23.15;47.50;97989.81;4994588;28;20393;-76
2023/06/19 06:50:42;;;;;;;13.98;10.32;;;;;;;23.25;47.52;97986.69;4987178;28;20036;-75
2023/06/19 06:53:08;;;;;;;12.63;9.82;;;;;;;23.31;48.84;97993.59;4968006;28;20070;-76
2023/06/19 06:55:33;;;;;;;11.95;10.30;;;;;;;22.95;48.00;97997.97;4988271;28;20022;-76
2023/06/19 06:57:58;;;;;;;12.60;10.20;;;;;;;23.21;48.49;97983.00;4976313;28;20041;-75
2023/06/19 07:00:24;;;;;;;11.70;10.50;;;;;;;23.34;47.42;97998.47;4972897;28;20476;-75
2023/06/19 07:02:50;;;;;;;11.13;9.93;;;;;;;23.47;47.35;97999.38;5008443;28;20045;-76
2023/06/19 07:05:16;;;;;;;12.77;10.40;;;;;;;23.28;47.54;98005.28;4954174;28;20049;-75
2023/06/19 07:07:41;;;;;;;11.23;10.10;;;;;;;23.42;47.67;98007.00;4965926;28;20121;-76
2023/06/19 07:10:07;;;;;;;11.65;10.45;;;;;;;23.45;48.05;97995.34;4955361;28;20026;-76
2023/06/19 07:12:33;;;;;;;11.25;10.05;;;;;;;23.52;48.17;98007.44;4990232;28;20405;-76
2023/06/19 07:14:58;;;;;;;11.02;9.80;;;;;;;23.40;47.87;98014.78;4955975;28;20033;-75
2023/06/19 07:17:23;;;;;;;11.48;10.27;;;;;;;23.67;49.24;98008.78;4973557;28;20030;-76
2023/06/19 07:19:49;;;;;;;11.25;10.15;;;;;;;23.64;48.71;98003.97;4986754;28;20033;-76
2023/06/19 07:22:14;;;;;;;11.23;10.10;;;;;;;23.59;48.81;98006.91;4981113;28;20112;-76
2023/06/19 07:24:40;;;;;;;12.57;10.25;;;;;;;23.62;48.62;98011.75;4980442;28;20025;-76
2023/06/19 07:27:06;;;;;;;15.65;10.05;;;;;;;23.48;48.65;98005.69;4999918;28;20046;-76
2023/06/19 07:29:32;;;;;;;12.65;10.80;;;;;;;23.67;49.46;98014.28;5003133;28;20030;-76
2023/06/19 07:31:58;;;;;;;11.10;10.00;;;;;;;23.93;49.36;98014.91;4980758;28;20042;-76
2023/06/19 07:34:23;;;;;;;10.98;9.75;;;;;;;23.89;48.16;98005.72;4972311;28;20161;-75
2023/06/19 07:36:48;;;;;;;12.38;9.65;;;;;;;23.93;48.11;98012.16;4961387;28;20038;-77
2023/06/19 07:39:14;;;;;;;11.65;9.90;;;;;;;24.00;47.40;98006.91;4977572;28;20102;-75
2023/06/19 07:41:39;;;;;;;11.63;10.43;;;;;;;24.02;47.26;98004.63;4968893;28;20038;-76
2023/06/19 07:44:05;;;;;;;10.95;9.90;;;;;;;23.95;48.44;98010.69;4972136;28;20029;-75
2023/06/19 07:46:30;;;;;;;11.75;10.55;;;;;;;24.37;47.71;98003.22;4992633;28;20052;-76
2023/06/19 07:48:56;;;;;;;12.73;10.43;;;;;;;24.06;47.53;98002.88;4972370;28;20034;-74
2023/06/19 07:51:21;;;;;;;12.50;10.13;;;;;;;24.24;48.52;98001.56;4960860;28;20046;-75
2023/06/19 07:53:46;;;;;;;11.27;9.95;;;;;;;24.42;47.76;98003.00;4951993;28;20424;-76
2023/06/19 07:56:12;;;;;;;11.02;9.95;;;;;;;23.99;48.52;98010.81;5014392;28;20041;-77
2023/06/19 07:58:37;;;;;;;11.50;10.32;;;;;;;23.72;48.73;98016.84;4980634;28;20030;-76
2023/06/19 08:01:02;;;;;;;11.65;9.85;;;;;;;23.58;48.23;97999.78;4999748;28;20046;-76
2023/06/19 08:03:28;;;;;;;13.82;10.00;;;;;;;23.94;48.66;98006.31;4976698;28;20053;-76
2023/06/19 08:05:53;;;;;;;14.38;9.10;;;;;;;23.79;49.17;98006.09;4991101;28;20038;-76
2023/06/19 08:08:18;;;;;;;11.45;8.30;;;;;;;23.49;48.71;98013.59;4980236;28;20161;-76
2023/06/19 08:10:44;;;;;;;10.70;9.10;;;;;;;23.62;48.21;98020.00;4995633;28;20041;-76
2023/06/19 08:13:11;;;;;;;9.40;8.40;;;;;;;23.60;48.61;98019.50;4960234;28;20033;-77
2023/06/19 08:15:36;;;;;;;10.98;8.85;;;;;;;23.83;49.23;98012.53;4960733;28;20476;-77
2023/06/19 08:18:02;;;;;;;11.18;9.40;;;;;;;23.82;49.04;98013.69;4960859;28;20109;-76
2023/06/19 08:20:27;;;;;;;10.63;9.55;;;;;;;23.64;48.61;98025.97;4958330;28;20064;-76
2023/06/19 08:22:53;;;;;;;12.30;9.02;;;;;;;23.69;49.23;98017.50;4972392;28;20057;-77
2023/06/19 08:25:18;;;;;;;9.90;8.90;;;;;;;23.79;49.90;98033.63;4974105;28;20042;-76
2023/06/19 08:27:45;;;;;;;13.55;8.70;;;;;;;23.69;48.73;98025.75;4979889;28;20021;-76
2023/06/19 08:30:10;;;;;;;9.15;8.10;;;;;;;23.97;48.90;98035.09;4995971;28;20065;-75
2023/06/19 08:32:36;;;;;;;8.70;7.80;;;;;;;24.32;48.46;98025.44;5013418;28;20103;-73
2023/06/19 08:35:01;;;;;;;11.00;8.95;;;;;;;24.17;49.16;98023.31;4992535;28;20268;-76
2023/06/19 08:37:26;;;;;;;8.95;8.00;;;;;;;24.20;49.62;98033.63;4966605;28;20125;-76
2023/06/19 08:39:52;;;;;;;10.00;8.98;;;;;;;23.77;49.39;98031.22;4979613;28;20046;-77
2023/06/19 08:42:17;;;;;;;11.40;8.95;;;;;;;23.96;49.64;98039.00;4986604;28;20026;-76
2023/06/19 08:44:43;;;;;;;9.93;8.90;;;;;;;24.02;49.86;98037.66;4963395;28;20489;-76
2023/06/19 08:47:09;;;;;;;11.10;8.70;;;;;;;24.10;48.33;98033.25;4989253;28;20476;-76
2023/06/19 08:49:35;;;;;;;11.93;8.95;;;;;;;24.00;49.51;98034.44;4995834;28;20084;-76
2023/06/19 08:52:04;;;;;;;11.45;9.30;;;;;;;23.75;50.48;98035.44;4960706;28;20030;-76
2023/06/19 08:54:30;;;;;;;10.30;9.20;;;;;;;23.98;49.90;98031.22;4985012;28;20042;-77
2023/06/19 08:56:55;;;;;;;9.60;8.63;;;;;;;23.93;50.45;98034.16;4993867;28;20032;-75
2023/06/19 08:59:21;;;;;;;8.88;8.07;;;;;;;23.90;50.79;98037.56;5006415;28;20030;-76
2023/06/19 09:01:54;;;;;;;10.70;8.52;;;;;;;23.91;50.45;98034.50;4982422;28;20488;-77
2023/06/19 09:04:27;;;;;;;9.57;8.32;;;;;;;23.80;50.12;98027.78;4966297;28;20118;-77
2023/06/19 09:06:54;;;;;;;8.88;8.07;;;;;;;23.97;49.89;98030.41;4975124;28;20060;-76
2023/06/19 09:09:22;;;;;;;9.52;8.20;;;;;;;24.00;50.43;98039.94;4993316;28;20039;-77
2023/06/19 09:12:00;;;;;;;10.05;8.93;;;;;;;23.94;49.36;98042.06;4967911;28;20066;-76
2023/06/19 09:14:45;;;;;;;9.65;8.40;;;;;;;23.92;50.85;98043.56;5005845;28;20038;-76
2023/06/19 09:17:19;;;;;;;9.75;8.27;;;;;;;23.69;50.80;98040.31;4959710;28;20503;-77
2023/06/19 09:19:52;;;;;;;9.43;7.97;;;;;;;23.84;51.18;98034.22;4988554;28;20109;-77
2023/06/19 09:22:20;;;;;;;8.68;7.78;;;;;;;23.96;51.26;98039.00;4986587;28;20046;-76
2023/06/19 09:24:46;;;;;;;9.98;8.35;;;;;;;24.21;51.33;98043.53;4959074;28;20025;-76
2023/06/19 09:27:14;;;;;;;12.50;8.20;;;;;;;24.00;51.17;98028.94;4960502;28;20374;-76
2023/06/19 09:29:41;;;;;;;12.90;7.82;;;;;;;24.72;50.39;98029.25;4988641;28;20018;-76
2023/06/19 09:32:20;;;;;;;11.38;8.30;;;;;;;24.47;50.79;98035.84;4974436;28;20061;-76
2023/06/19 09:34:49;;;;;;;9.65;8.63;;;;;;;24.66;50.63;98036.16;4977533;28;20065;-76
2023/06/19 09:37:14;;;;;;;9.35;8.02;;;;;;;24.51;51.58;98034.00;4980298;28;20021;-76
2023/06/19 09:39:41;;;;;;;9.63;8.30;;;;;;;24.49;51.64;98033.56;4983519;28;20504;-76
2023/06/19 09:42:12;;;;;;;9.77;8.10;;;;;;;24.81;51.01;98031.16;4957107;28;20026;-77
2023/06/19 09:44:42;;;;;;;10.10;8.07;;;;;;;24.93;50.34;98034.72;4983736;28;20038;-77
2023/06/19 09:47:47;;;;;;;9.40;7.90;;;;;;;24.43;50.46;98037.66;4981819;28;20034;-77
2023/06/19 09:50:17;;;;;;;9.18;7.85;;;;;;;24.79;49.90;98030.66;4941907;28;20062;-76
2023/06/19 09:52:46;;;;;;;11.55;7.15;;;;;;;24.94;49.31;98032.78;4956237;28;20117;-77
2023/06/19 09:55:13;;;;;;;9.27;8.30;;;;;;;25.17;48.83;98045.00;4988101;28;20034;-76
2023/06/19 09:57:39;;;;;;;8.55;7.70;;;;;;;24.84;48.84;98042.28;4984292;28;20040;-77
2023/06/19 10:00:14;;;;;;;9.88;8.05;;;;;;;25.16;49.16;98029.59;4959488;28;20022;-77
2023/06/19 10:02:41;;;;;;;11.55;8.02;;;;;;;25.17;49.94;98039.47;4964947;28;20030;-77
2023/06/19 10:05:11;;;;;;;10.48;8.30;;;;;;;25.23;49.16;98043.59;4989360;28;20423;-76
2023/06/19 10:07:37;;;;;;;10.43;7.82;;;;;;;24.83;49.79;98045.41;4976989;28;20495;-76
2023/06/19 10:10:06;;;;;;;9.93;7.47;;;;;;;25.28;48.30;98046.94;4983274;28;20029;-77
2023/06/19 10:12:47;;;;;;;7.93;7.00;;;;;;;25.24;49.28;98050.75;4995003;28;20042;-77
2023/06/19 10:15:19;;;;;;;9.27;7.45;;;;;;;25.59;50.16;98049.19;5000405;28;20069;-76
2023/06/19 10:17:50;;;;;;;8.13;7.03;;;;;;;25.57;48.91;98050.66;4989519;28;20038;-77
2023/06/19 10:20:27;;;;;;;8.70;7.47;;;;;;;25.64;48.52;98048.94;4950493;28;20049;-76
2023/06/19 10:23:04;;;;;;;7.75;6.95;;;;;;;25.87;48.42;98035.47;4962106;28;20038;-76
2023/06/19 10:25:38;;;;;;;7.63;6.75;;;;;;;26.55;47.41;98039.06;4989763;28;20030;-77
2023/06/19 10:28:08;;;;;;;9.85;7.22;;;;;;;25.55;49.08;98045.50;4978248;28;20034;-77
2023/06/19 10:30:34;;;;;;;8.68;7.30;;;;;;;25.36;49.81;98053.50;4965297;28;20025;-77
2023/06/19 10:33:03;;;;;;;8.18;7.10;;;;;;;25.18;50.09;98046.63;4983726;28;20030;-77
2023/06/19 10:35:29;;;;;;;7.93;6.95;;;;;;;25.88;50.20;98046.13;4972228;28;20054;-77
2023/06/19 10:37:54;;;;;;;8.00;6.90;;;;;;;25.25;51.24;98053.16;4981703;28;20069;-77
2023/06/19 10:40:20;;;;;;;7.78;6.97;;;;;;;25.82;50.23;98047.53;4965068;28;20114;-77
2023/06/19 10:42:45;;;;;;;7.63;6.90;;;;;;;26.20;49.71;98043.56;4965982;28;20081;-76
2023/06/19 10:45:13;;;;;;;7.95;7.15;;;;;;;26.37;47.66;98048.81;4971583;28;20034;-77
2023/06/19 10:47:39;;;;;;;8.10;6.18;;;;;;;27.57;47.43;98030.72;4968963;28;20038;-77
2023/06/19 10:50:15;;;;;;;6.90;6.30;;;;;;;27.06;46.94;98042.84;4977406;28;20030;-77
2023/06/19 10:52:42;;;;;;;8.80;5.78;;;;;;;26.62;49.15;98042.84;4980151;28;20045;-77
2023/06/19 10:55:08;;;;;;;5.97;5.38;;;;;;;27.21;48.42;98040.06;4981278;28;20026;-77
2023/06/19 10:57:34;;;;;;;7.13;5.50;;;;;;;27.37;47.80;98043.72;4991987;28;20081;-76
2023/06/19 10:59:59;;;;;;;6.43;5.82;;;;;;;27.57;47.13;98035.44;4992068;28;20026;-77
2023/06/19 11:02:25;;;;;;;7.30;5.40;;;;;;;27.01;48.18;98032.03;4950129;28;20063;-77
2023/06/19 11:04:54;;;;;;;6.03;5.40;;;;;;;27.12;47.43;98031.16;4975815;28;20084;-76
2023/06/19 11:07:20;;;;;;;5.68;5.18;;;;;;;27.39;47.75;98041.38;4981441;28;20042;-77
2023/06/19 11:09:45;;;;;;;6.13;5.53;;;;;;;26.63;48.03;98041.66;4993469;28;20026;-77
2023/06/19 11:12:11;;;;;;;6.25;5.60;;;;;;;27.61;45.13;98031.59;4961539;28;20547;-77
2023/06/19 11:14:39;;;;;;;7.15;6.18;;;;;;;28.51;44.81;98031.25;4964038;28;20026;-76
2023/06/19 11:17:05;;;;;;;6.40;5.38;;;;;;;28.44;43.86;98033.88;4994291;28;20392;-76
2023/06/19 11:19:33;;;;;;;7.63;5.78;;;;;;;29.23;43.09;98017.56;4945560;28;20033;-77
2023/06/19 11:21:59;;;;;;;6.18;5.57;;;;;;;28.80;42.45;98037.38;4961663;28;20130;-77
2023/06/19 11:24:24;;;;;;;7.90;5.70;;;;;;;28.34;43.33;98031.69;4992884;28;20106;-76
2023/06/19 11:26:50;;;;;;;6.30;5.68;;;;;;;29.77;40.60;98026.41;4977456;28;20137;-77
2023/06/19 11:29:21;;;;;;;6.25;5.45;;;;;;;28.78;43.11;98028.63;4981370;28;20034;-77